createdAt,value
2022-10-19T00:01:07.886Z,2.00
2022-10-19T00:03:36.780Z,2.50
2022-10-19T00:06:13.517Z,3.00
2022-10-19T00:08:41.863Z,2.00
2022-10-19T00:11:10.365Z,2.00
2022-10-19T00:13:38.517Z,0.00
2022-10-19T00:16:11.378Z,2.00
2022-10-19T00:18:40.146Z,1.00
2022-10-19T00:21:09.190Z,2.00
2022-10-19T00:23:38.740Z,2.00
2022-10-19T00:26:06.950Z,2.75
2022-10-19T00:28:37.631Z,1.50
2022-10-19T00:31:09.073Z,1.00
2022-10-19T00:33:37.611Z,2.00
2022-10-19T00:36:16.347Z,3.50
2022-10-19T00:38:54.253Z,5.00
2022-10-19T00:41:23.459Z,2.00
2022-10-19T00:43:54.992Z,4.75
2022-10-19T00:46:23.549Z,3.00
2022-10-19T00:48:54.002Z,3.00
2022-10-19T00:51:22.370Z,3.50
2022-10-19T00:53:52.224Z,3.50
2022-10-19T00:56:20.447Z,34.00
2022-10-19T00:58:48.743Z,33.80
2022-10-19T01:01:18.071Z,30.00
2022-10-19T01:03:46.999Z,17.00
2022-10-19T01:06:16.051Z,7.00
2022-10-19T01:08:44.188Z,18.75
2022-10-19T01:11:19.993Z,14.00
2022-10-19T01:13:53.486Z,5.25
2022-10-19T01:16:25.999Z,8.75
2022-10-19T01:18:59.375Z,9.00
2022-10-19T01:21:30.260Z,7.00
2022-10-19T01:24:23.755Z,7.50
2022-10-19T01:27:21.897Z,8.00
2022-10-19T01:30:03.169Z,5.50
2022-10-19T01:32:36.305Z,4.00
2022-10-19T01:35:07.337Z,3.00
2022-10-19T01:37:39.364Z,4.00
2022-10-19T01:40:11.161Z,2.50
2022-10-19T01:42:44.662Z,1.75
2022-10-19T01:45:16.535Z,3.00
2022-10-19T01:47:48.450Z,3.00
2022-10-19T01:50:19.322Z,2.25
2022-10-19T01:52:48.344Z,3.00
2022-10-19T01:55:17.825Z,3.00
2022-10-19T01:57:48.709Z,2.25
2022-10-19T02:00:18.578Z,2.00
2022-10-19T02:02:49.867Z,0.50
2022-10-19T02:05:19.235Z,2.00
2022-10-19T02:07:49.886Z,2.00
2022-10-19T02:10:18.910Z,1.67
2022-10-19T02:12:47.792Z,2.00
2022-10-19T02:15:18.614Z,2.00
2022-10-19T02:17:50.504Z,2.00
2022-10-19T02:20:18.850Z,1.75
2022-10-19T02:22:46.951Z,3.00
2022-10-19T02:25:15.560Z,2.50
2022-10-19T02:27:43.752Z,5.00
2022-10-19T02:30:12.598Z,7.00
2022-10-19T02:32:40.852Z,6.00
2022-10-19T02:35:11.442Z,5.00
2022-10-19T02:37:40.563Z,6.00
2022-10-19T02:40:09.742Z,4.50
2022-10-19T02:42:41.027Z,6.00
2022-10-19T02:45:11.427Z,5.50
2022-10-19T02:47:43.556Z,6.25
2022-10-19T02:50:13.601Z,5.75
2022-10-19T02:52:41.720Z,5.75
2022-10-19T02:55:10.319Z,5.00
2022-10-19T02:57:38.958Z,5.00
2022-10-19T03:00:08.253Z,4.50
2022-10-19T03:02:36.352Z,3.00
2022-10-19T03:05:04.781Z,2.50
2022-10-19T03:07:34.976Z,4.00
2022-10-19T03:10:04.384Z,3.00
2022-10-19T03:12:32.513Z,4.00
2022-10-19T03:15:00.665Z,5.50
2022-10-19T03:17:28.794Z,6.00
2022-10-19T03:19:56.858Z,4.50
2022-10-19T03:22:26.844Z,6.00
2022-10-19T03:24:56.448Z,1.00
2022-10-19T03:27:24.897Z,5.75
2022-10-19T03:29:53.219Z,4.50
2022-10-19T03:32:21.333Z,4.00
2022-10-19T03:34:49.436Z,3.50
2022-10-19T03:37:17.512Z,5.50
2022-10-19T03:39:45.632Z,3.00
2022-10-19T03:42:15.129Z,7.00
2022-10-19T03:44:43.251Z,5.00
2022-10-19T03:47:11.397Z,5.50
2022-10-19T03:49:40.342Z,6.00
2022-10-19T03:52:10.331Z,4.50
2022-10-19T03:54:38.664Z,6.00
2022-10-19T03:57:06.767Z,4.50
2022-10-19T03:59:37.486Z,4.50
2022-10-19T04:02:05.905Z,5.00
2022-10-19T04:04:34.040Z,3.25
2022-10-19T04:07:02.214Z,13.75
2022-10-19T04:09:30.423Z,20.25
2022-10-19T04:11:58.590Z,6.00
2022-10-19T04:14:32.206Z,4.00
2022-10-19T04:17:09.032Z,37.80
2022-10-19T04:19:37.133Z,11.50
2022-10-19T04:22:05.239Z,5.00
2022-10-19T04:24:33.390Z,10.50
2022-10-19T04:27:01.821Z,12.25
2022-10-19T04:29:30.921Z,6.00
2022-10-19T04:31:59.546Z,8.00
2022-10-19T04:34:29.329Z,9.00
2022-10-19T04:37:02.420Z,11.50
2022-10-19T04:39:30.533Z,9.00
2022-10-19T04:41:58.665Z,8.00
2022-10-19T04:44:26.981Z,13.50
2022-10-19T04:46:55.310Z,8.00
2022-10-19T04:49:23.470Z,7.50
2022-10-19T04:51:52.983Z,2.00
2022-10-19T04:54:21.166Z,8.00
2022-10-19T04:56:50.322Z,9.50
2022-10-19T04:59:18.737Z,10.25
2022-10-19T05:01:50.290Z,14.00
2022-10-19T05:04:21.742Z,11.50
2022-10-19T05:06:53.661Z,13.50
2022-10-19T05:09:23.210Z,14.50
2022-10-19T05:11:51.624Z,9.50
2022-10-19T05:14:19.872Z,19.00
2022-10-19T05:16:48.288Z,13.25
2022-10-19T05:19:16.590Z,11.00
2022-10-19T05:21:44.950Z,11.50
2022-10-19T05:24:14.890Z,5.50
2022-10-19T05:26:43.257Z,11.00
2022-10-19T05:29:13.500Z,13.50
2022-10-19T05:31:42.196Z,9.75
2022-10-19T05:34:11.260Z,10.50
2022-10-19T05:36:40.257Z,11.00
2022-10-19T05:39:09.837Z,11.25
2022-10-19T05:41:39.945Z,9.50
2022-10-19T05:44:08.313Z,11.00
2022-10-19T05:46:36.581Z,9.50
2022-10-19T05:49:05.064Z,16.00
2022-10-19T05:51:36.160Z,10.75
2022-10-19T05:54:04.754Z,11.00
2022-10-19T05:57:06.085Z,11.75
2022-10-19T05:59:36.142Z,6.50
2022-10-19T06:02:04.883Z,11.50
2022-10-19T06:04:33.936Z,11.25
2022-10-19T06:07:15.971Z,10.00
2022-10-19T06:09:46.749Z,10.50
2022-10-19T06:12:16.371Z,11.00
2022-10-19T06:17:20.349Z,16.25
2022-10-19T06:19:48.724Z,10.75
2022-10-19T06:22:17.084Z,11.00
2022-10-19T06:24:45.300Z,10.50
2022-10-19T06:27:13.721Z,12.25
2022-10-19T06:29:42.088Z,14.75
2022-10-19T06:32:11.746Z,13.25
2022-10-19T06:34:40.455Z,11.00
2022-10-19T06:37:09.661Z,13.25
2022-10-19T06:39:48.398Z,10.67
2022-10-19T06:42:21.246Z,15.00
2022-10-19T06:44:52.420Z,12.00
2022-10-19T06:47:23.401Z,12.75
2022-10-19T06:49:53.500Z,12.25
2022-10-19T06:52:22.324Z,11.75
2022-10-19T06:54:50.624Z,11.75
2022-10-19T06:57:18.843Z,10.75
2022-10-19T06:59:50.130Z,13.00
2022-10-19T07:02:49.552Z,12.00
2022-10-19T07:05:21.144Z,13.00
2022-10-19T07:07:49.532Z,13.00
2022-10-19T07:10:18.046Z,15.75
2022-10-19T07:12:46.549Z,15.00
2022-10-19T07:15:14.704Z,14.00
2022-10-19T07:17:43.028Z,11.75
2022-10-19T07:20:12.214Z,17.75
2022-10-19T07:26:31.860Z,17.25
2022-10-19T07:29:00.585Z,18.75
2022-10-19T07:31:33.664Z,27.75
2022-10-19T07:34:02.953Z,14.00
2022-10-19T07:36:37.090Z,20.75
2022-10-19T07:39:06.582Z,16.00
2022-10-19T07:41:36.241Z,12.50
2022-10-19T07:44:04.718Z,15.00
2022-10-19T07:46:37.265Z,7.00
2022-10-19T07:49:06.666Z,7.00
2022-10-19T07:51:34.946Z,13.75
2022-10-19T07:54:03.123Z,9.75
2022-10-19T07:56:31.487Z,14.00
2022-10-19T07:59:01.641Z,14.00
2022-10-19T08:01:30.617Z,14.25
2022-10-19T08:06:47.901Z,12.00
2022-10-19T08:09:33.792Z,25.20
2022-10-19T08:12:05.421Z,14.00
2022-10-19T08:14:35.537Z,15.50
2022-10-19T08:17:04.158Z,14.75
2022-10-19T08:19:32.363Z,25.25
2022-10-19T08:22:00.668Z,14.00
2022-10-19T08:24:28.984Z,15.00
2022-10-19T08:26:57.177Z,18.00
2022-10-19T08:29:27.776Z,10.50
2022-10-19T08:32:00.960Z,14.50
2022-10-19T08:34:29.099Z,7.75
2022-10-19T08:37:04.114Z,14.50
2022-10-19T08:40:02.195Z,15.25
2022-10-19T08:43:11.944Z,14.50
2022-10-19T08:45:42.746Z,15.25
2022-10-19T08:48:36.896Z,17.50
2022-10-19T08:51:09.383Z,16.75
2022-10-19T08:53:41.816Z,15.00
2022-10-19T08:56:39.011Z,14.25
2022-10-19T08:59:12.591Z,12.75
2022-10-19T09:01:43.401Z,14.25
2022-10-19T09:04:16.356Z,11.25
2022-10-19T09:07:34.230Z,7.50
2022-10-19T09:10:03.940Z,17.00
2022-10-19T09:12:39.220Z,12.00
2022-10-19T09:15:09.217Z,8.75
2022-10-19T09:17:37.815Z,10.75
2022-10-19T09:20:21.430Z,7.00
2022-10-19T09:22:52.618Z,11.00
2022-10-19T09:25:21.648Z,7.50
2022-10-19T09:27:51.005Z,7.00
2022-10-19T09:30:21.292Z,10.33
2022-10-19T09:32:50.598Z,9.25
2022-10-19T09:35:24.305Z,10.00
2022-10-19T09:37:52.938Z,7.50
2022-10-19T09:40:22.906Z,7.75
2022-10-19T09:42:57.279Z,8.25
2022-10-19T09:45:40.795Z,10.25
2022-10-19T09:48:15.789Z,9.75
2022-10-19T09:50:45.799Z,11.25
2022-10-19T09:53:19.299Z,14.25
2022-10-19T09:56:07.237Z,14.75
2022-10-19T09:58:36.549Z,14.00
2022-10-19T10:01:05.360Z,18.75
2022-10-19T10:03:35.415Z,10.00
2022-10-19T10:06:07.188Z,15.50
2022-10-19T10:08:37.125Z,15.00
2022-10-19T10:15:28.865Z,15.00
2022-10-19T10:18:03.488Z,10.75
2022-10-19T10:21:06.004Z,18.50
2022-10-19T10:27:33.469Z,14.50
2022-10-19T10:30:07.159Z,11.00
2022-10-19T10:32:39.156Z,7.00
2022-10-19T10:35:19.018Z,7.00
2022-10-19T10:37:51.087Z,7.00
2022-10-19T10:40:45.140Z,10.00
2022-10-19T10:43:19.421Z,5.00
2022-10-19T10:45:56.551Z,9.00
2022-10-19T10:52:32.340Z,7.00
2022-10-19T10:55:34.067Z,7.00
2022-10-19T10:58:13.171Z,4.00
2022-10-19T11:00:49.121Z,6.75
2022-10-19T11:03:32.202Z,5.75
2022-10-19T11:06:02.962Z,4.50
2022-10-19T11:08:36.327Z,5.25
2022-10-19T11:11:14.278Z,6.25
2022-10-19T11:13:46.259Z,6.00
2022-10-19T11:16:17.487Z,4.00
2022-10-19T11:18:50.494Z,8.00
2022-10-19T11:21:27.104Z,6.50
2022-10-19T11:24:02.599Z,6.00
2022-10-19T11:26:43.517Z,5.50
2022-10-19T11:29:25.733Z,4.00
2022-10-19T11:32:00.980Z,6.50
2022-10-19T11:34:46.466Z,4.00
2022-10-19T11:37:26.961Z,6.50
2022-10-19T11:40:06.704Z,5.25
2022-10-19T11:45:36.667Z,5.75
2022-10-19T11:48:15.224Z,4.00
2022-10-19T11:50:54.247Z,6.25
2022-10-19T11:53:51.664Z,6.50
2022-10-19T11:56:58.261Z,6.00
2022-10-19T11:59:33.378Z,5.00
2022-10-19T12:02:06.933Z,8.00
2022-10-19T12:04:43.885Z,6.00
2022-10-19T12:07:26.854Z,5.00
2022-10-19T12:10:01.739Z,9.25
2022-10-19T12:12:37.640Z,6.75
2022-10-19T12:15:18.665Z,9.00
2022-10-19T12:17:51.152Z,7.00
2022-10-19T12:20:26.108Z,9.00
2022-10-19T12:22:55.203Z,9.25
2022-10-19T12:25:34.116Z,9.25
2022-10-19T12:28:04.699Z,8.25
2022-10-19T12:30:33.403Z,10.33
2022-10-19T12:33:10.718Z,6.00
2022-10-19T12:35:59.040Z,8.75
2022-10-19T12:38:31.911Z,6.50
2022-10-19T12:41:05.743Z,7.00
2022-10-19T12:43:40.232Z,6.75
2022-10-19T12:46:13.686Z,8.75
2022-10-19T12:48:45.381Z,9.25
2022-10-19T12:51:18.353Z,8.50
2022-10-19T12:53:53.131Z,5.00
2022-10-19T12:56:32.587Z,8.00
2022-10-19T12:59:02.828Z,6.75
2022-10-19T13:01:44.434Z,5.75
2022-10-19T13:04:18.240Z,8.00
2022-10-19T13:06:49.568Z,7.00
2022-10-19T13:09:43.429Z,10.50
2022-10-19T13:12:43.293Z,9.00
2022-10-19T13:15:27.685Z,8.00
2022-10-19T13:17:56.215Z,8.00
2022-10-19T13:20:49.857Z,7.00
2022-10-19T13:23:37.153Z,7.25
2022-10-19T13:26:30.651Z,7.00
2022-10-19T13:29:00.945Z,7.00
2022-10-19T13:31:33.254Z,7.00
2022-10-19T13:34:06.015Z,7.00
2022-10-19T13:36:40.650Z,8.50
2022-10-19T13:39:41.372Z,7.00
2022-10-19T13:42:41.252Z,7.00
2022-10-19T13:45:35.423Z,7.00
2022-10-19T13:48:16.478Z,5.75
2022-10-19T13:50:47.864Z,9.50
2022-10-19T13:53:30.415Z,7.00
2022-10-19T13:56:08.782Z,7.00
2022-10-19T13:58:52.052Z,7.00
2022-10-19T14:01:30.897Z,6.75
2022-10-19T14:04:31.615Z,7.50
2022-10-19T14:07:11.669Z,6.00
2022-10-19T14:09:58.769Z,2.75
2022-10-19T14:16:22.094Z,4.00
2022-10-19T14:19:14.067Z,3.50
2022-10-19T14:21:43.258Z,4.50
2022-10-19T14:24:30.086Z,4.00
2022-10-19T14:27:00.914Z,4.25
2022-10-19T14:29:29.946Z,4.00
2022-10-19T14:32:00.144Z,3.50
2022-10-19T14:34:34.298Z,2.00
2022-10-19T14:37:03.191Z,3.00
2022-10-19T14:39:33.255Z,5.00
2022-10-19T14:42:04.722Z,4.75
2022-10-19T14:44:39.879Z,5.00
2022-10-19T14:47:17.378Z,3.00
2022-10-19T14:49:56.184Z,1.75
2022-10-19T14:52:30.132Z,4.00
2022-10-19T14:54:58.848Z,3.00
2022-10-19T14:57:35.208Z,4.00
2022-10-19T15:00:05.911Z,5.00
2022-10-19T15:03:04.959Z,2.75
2022-10-19T15:05:37.982Z,3.00
2022-10-19T15:08:11.584Z,5.00
2022-10-19T15:10:46.047Z,2.00
2022-10-19T15:13:21.038Z,3.00
2022-10-19T15:15:51.867Z,2.25
2022-10-19T15:18:43.982Z,2.00
2022-10-19T15:21:15.825Z,1.75
2022-10-19T15:23:44.743Z,1.00
2022-10-19T15:26:18.124Z,2.00
2022-10-19T15:28:46.955Z,2.25
2022-10-19T15:31:16.522Z,2.75
2022-10-19T15:33:45.888Z,2.25
2022-10-19T15:36:17.487Z,2.00
2022-10-19T15:38:46.341Z,2.00
2022-10-19T15:41:18.515Z,2.33
2022-10-19T15:43:51.320Z,2.50
2022-10-19T15:46:33.919Z,2.00
2022-10-19T15:49:04.455Z,3.00
2022-10-19T15:51:47.272Z,2.50
2022-10-19T15:54:17.382Z,2.50
2022-10-19T15:56:46.297Z,3.75
2022-10-19T15:59:16.085Z,3.00
2022-10-19T16:01:45.027Z,1.25
2022-10-19T16:04:13.379Z,0.50
2022-10-19T16:06:42.956Z,3.25
2022-10-19T16:09:17.202Z,2.00
2022-10-19T16:11:46.009Z,2.00
2022-10-19T16:16:52.515Z,1.00
2022-10-19T16:23:03.540Z,1.50
2022-10-19T16:25:36.370Z,2.00
2022-10-19T16:28:07.016Z,2.00
2022-10-19T16:30:36.142Z,2.00
2022-10-19T16:33:06.836Z,1.00
2022-10-19T16:35:41.444Z,4.00
2022-10-19T16:38:10.077Z,2.00
2022-10-19T16:40:40.120Z,4.50
2022-10-19T16:43:09.222Z,4.00
2022-10-19T16:45:39.969Z,5.75
2022-10-19T16:48:08.692Z,3.75
2022-10-19T16:50:37.649Z,1.25
2022-10-19T16:53:11.949Z,2.00
2022-10-19T16:55:45.643Z,1.00
2022-10-19T16:58:17.095Z,5.00
2022-10-19T17:00:46.123Z,2.00
2022-10-19T17:03:15.187Z,1.75
2022-10-19T17:05:44.782Z,4.50
2022-10-19T17:12:07.660Z,3.50
2022-10-19T17:18:32.103Z,4.00
2022-10-19T17:22:10.600Z,5.00
2022-10-19T17:24:47.665Z,5.00
2022-10-19T17:27:36.186Z,5.00
2022-10-19T17:30:54.205Z,4.50
2022-10-19T17:33:27.809Z,2.50
2022-10-19T17:36:03.667Z,2.75
2022-10-19T17:39:00.098Z,3.75
2022-10-19T17:42:18.323Z,2.00
2022-10-19T17:44:48.848Z,1.50
2022-10-19T17:47:18.152Z,4.50
2022-10-19T17:49:47.427Z,1.00
2022-10-19T17:52:17.393Z,2.00
2022-10-19T17:54:54.738Z,1.00
2022-10-19T17:57:36.392Z,2.25
2022-10-19T18:00:07.725Z,3.00
2022-10-19T18:02:41.226Z,5.00
2022-10-19T18:05:11.027Z,2.00
2022-10-19T18:07:40.640Z,1.00
2022-10-19T18:10:09.671Z,4.50
2022-10-19T18:12:41.086Z,2.75
2022-10-19T18:15:13.001Z,3.00
2022-10-19T18:17:42.958Z,2.00
2022-10-19T18:20:13.414Z,2.00
2022-10-19T18:25:12.360Z,4.00
2022-10-19T18:27:41.275Z,0.00
2022-10-19T18:30:12.220Z,1.00
2022-10-19T18:32:41.207Z,3.25
2022-10-19T18:35:10.497Z,4.00
2022-10-19T18:37:41.800Z,3.25
2022-10-19T18:40:12.082Z,4.00
2022-10-19T18:42:41.052Z,3.00
2022-10-19T18:45:10.253Z,5.00
2022-10-19T18:47:40.186Z,3.50
2022-10-19T18:50:08.859Z,1.25
2022-10-19T18:52:42.373Z,6.00
2022-10-19T18:55:16.013Z,2.00
2022-10-19T18:57:44.488Z,0.00
2022-10-19T19:00:13.696Z,2.50
2022-10-19T19:02:47.240Z,2.00
2022-10-19T19:05:16.745Z,0.00
2022-10-19T19:07:45.631Z,2.00
2022-10-19T19:10:15.049Z,1.00
2022-10-19T19:12:50.208Z,1.00
2022-10-19T19:15:20.257Z,2.00
2022-10-19T19:17:55.201Z,2.00
2022-10-19T19:20:28.082Z,2.00
2022-10-19T19:22:58.465Z,2.50
2022-10-19T19:25:31.016Z,1.00
2022-10-19T19:28:06.529Z,2.00
2022-10-19T19:31:33.507Z,2.00
2022-10-19T19:34:06.553Z,2.00
2022-10-19T19:36:35.484Z,1.00
2022-10-19T19:39:04.043Z,0.00
2022-10-19T19:58:47.720Z,2.50
2022-10-19T20:01:18.820Z,1.25
2022-10-19T20:03:48.924Z,2.00
2022-10-19T20:06:25.014Z,2.00
2022-10-19T20:08:55.427Z,1.00
2022-10-19T20:11:25.870Z,1.75
2022-10-19T20:13:56.284Z,2.00
2022-10-19T20:16:33.533Z,3.00
2022-10-19T20:19:05.235Z,0.50
2022-10-19T20:21:34.107Z,3.25
2022-10-19T20:24:05.634Z,1.00
2022-10-19T20:26:34.983Z,2.00
2022-10-19T20:29:09.352Z,2.00
2022-10-19T20:31:43.433Z,1.50
2022-10-19T20:34:24.054Z,0.50
2022-10-19T20:36:56.313Z,0.50
2022-10-19T20:39:49.447Z,2.00
2022-10-19T20:42:18.529Z,2.00
2022-10-19T20:44:48.531Z,1.00
2022-10-19T20:47:35.062Z,2.00
2022-10-19T20:52:37.397Z,1.00
2022-10-19T20:55:09.140Z,1.25
2022-10-19T20:57:37.656Z,2.00
2022-10-19T21:00:08.646Z,5.00
2022-10-19T21:02:37.095Z,1.75
2022-10-19T21:05:07.546Z,2.00
2022-10-19T21:07:36.437Z,4.00
2022-10-19T21:10:06.272Z,2.00
2022-10-19T21:12:34.830Z,3.00
2022-10-19T21:15:03.263Z,3.00
2022-10-19T21:17:33.732Z,1.75
2022-10-19T21:20:02.032Z,2.00
2022-10-19T21:22:34.533Z,2.00
2022-10-19T21:25:06.666Z,2.00
2022-10-19T21:27:35.167Z,3.75
2022-10-19T21:30:03.761Z,2.25
2022-10-19T21:32:40.444Z,2.00
2022-10-19T21:35:09.242Z,3.00
2022-10-19T21:37:37.695Z,1.00
2022-10-19T21:40:06.582Z,4.00
2022-10-19T21:42:35.642Z,2.00
2022-10-19T21:45:18.350Z,2.75
2022-10-19T21:47:54.660Z,5.00
2022-10-19T21:50:24.062Z,3.00
2022-10-19T21:52:53.268Z,3.00
2022-10-19T21:55:21.700Z,2.00
2022-10-19T21:57:50.242Z,3.00
2022-10-19T22:00:19.320Z,3.00
2022-10-19T22:02:49.773Z,2.50
2022-10-19T22:05:21.464Z,2.00
2022-10-19T22:07:50.059Z,3.00
2022-10-19T22:10:18.700Z,0.00
2022-10-19T22:12:47.126Z,2.00
2022-10-19T22:15:17.235Z,2.25
2022-10-19T22:17:45.587Z,2.50
2022-10-19T22:20:15.406Z,2.00
2022-10-19T22:22:45.915Z,2.25
2022-10-19T22:25:14.309Z,4.00
2022-10-19T22:27:42.641Z,4.25
2022-10-19T22:30:11.406Z,3.25
2022-10-19T22:32:39.791Z,4.75
2022-10-19T22:35:08.325Z,1.00
2022-10-19T22:37:36.770Z,3.00
2022-10-19T22:40:07.764Z,4.25
2022-10-19T22:42:36.547Z,3.50
2022-10-19T22:45:05.166Z,2.00
2022-10-19T22:47:33.827Z,1.00
2022-10-19T22:50:02.161Z,2.00
2022-10-19T22:52:31.390Z,2.00
2022-10-19T22:54:59.632Z,2.00
2022-10-19T22:57:29.926Z,2.00
2022-10-19T22:59:58.302Z,1.50
2022-10-19T23:02:27.687Z,2.00
2022-10-19T23:04:55.995Z,1.00
2022-10-19T23:07:24.288Z,1.50
2022-10-19T23:09:52.504Z,1.00
2022-10-19T23:12:20.964Z,1.00
2022-10-19T23:14:51.316Z,0.00
2022-10-19T23:17:19.615Z,1.00
2022-10-19T23:19:47.908Z,0.25
2022-10-19T23:22:16.754Z,1.00
2022-10-19T23:24:45.473Z,1.50
2022-10-19T23:27:14.268Z,1.00
2022-10-19T23:29:42.797Z,2.00
2022-10-19T23:32:12.573Z,1.00
2022-10-19T23:34:43.148Z,1.00
2022-10-19T23:37:14.745Z,2.00
2022-10-19T23:39:43.071Z,1.50
2022-10-19T23:42:11.305Z,0.00
2022-10-19T23:44:39.531Z,1.00
2022-10-19T23:47:07.981Z,1.50
2022-10-19T23:49:37.730Z,0.50
2022-10-19T23:52:06.294Z,2.00
2022-10-19T23:54:34.485Z,1.00
